createdAt,value
2023-01-25T00:01:54.771Z,-1.65
2023-01-25T00:04:24.781Z,-1.94
2023-01-25T00:06:53.067Z,-1.66
2023-01-25T00:09:23.498Z,-1.64
2023-01-25T00:11:52.550Z,-1.68
2023-01-25T00:14:22.372Z,-1.71
2023-01-25T00:16:50.307Z,-1.73
2023-01-25T00:19:18.944Z,-1.83
2023-01-25T00:21:47.354Z,-1.78
2023-01-25T00:24:15.834Z,-1.80
2023-01-25T00:26:44.939Z,-1.96
2023-01-25T00:29:14.330Z,-1.86
2023-01-25T00:31:47.833Z,-1.84
2023-01-25T00:34:44.838Z,-1.83
2023-01-25T00:37:29.317Z,-1.88
2023-01-25T00:39:57.888Z,-1.90
2023-01-25T00:42:26.130Z,-1.93
2023-01-25T00:44:54.674Z,-1.87
2023-01-25T00:47:24.697Z,-1.88
2023-01-25T00:49:53.247Z,-1.93
2023-01-25T00:52:22.610Z,-2.09
2023-01-25T00:54:51.213Z,-1.96
2023-01-25T00:57:19.526Z,-2.05
2023-01-25T00:59:47.999Z,-1.97
2023-01-25T01:02:16.626Z,-2.08
2023-01-25T01:04:48.154Z,-2.24
2023-01-25T01:07:16.886Z,-2.06
2023-01-25T01:09:45.461Z,-2.04
2023-01-25T01:12:13.630Z,-2.13
2023-01-25T01:14:42.022Z,-2.21
2023-01-25T01:17:10.255Z,-2.12
2023-01-25T01:19:38.731Z,-2.11
2023-01-25T01:22:08.438Z,-2.14
2023-01-25T01:24:36.865Z,-2.21
2023-01-25T01:27:05.147Z,-2.22
2023-01-25T01:29:33.939Z,-2.32
2023-01-25T01:32:02.179Z,-2.25
2023-01-25T01:34:31.042Z,-2.25
2023-01-25T01:36:59.288Z,-2.59
2023-01-25T01:39:29.486Z,-2.29
2023-01-25T01:41:57.667Z,-2.33
2023-01-25T01:44:46.084Z,-2.32
2023-01-25T01:47:19.008Z,-2.35
2023-01-25T01:49:53.773Z,-2.36
2023-01-25T01:52:25.112Z,-2.38
2023-01-25T01:55:01.252Z,-2.46
2023-01-25T01:57:36.545Z,-2.58
2023-01-25T02:00:09.774Z,-2.38
2023-01-25T02:02:38.458Z,-2.41
2023-01-25T02:05:12.391Z,-2.42
2023-01-25T02:07:41.298Z,-2.49
2023-01-25T02:10:13.882Z,-2.53
2023-01-25T02:12:43.667Z,-2.45
2023-01-25T02:15:12.599Z,-2.49
2023-01-25T02:17:42.349Z,-2.49
2023-01-25T02:20:18.562Z,-2.52
2023-01-25T02:22:55.271Z,-2.58
2023-01-25T02:25:25.291Z,-2.53
2023-01-25T02:27:57.478Z,-2.52
2023-01-25T02:30:26.509Z,-2.53
2023-01-25T02:32:54.664Z,-2.58
2023-01-25T02:35:25.026Z,-2.62
2023-01-25T02:37:53.704Z,-2.65
2023-01-25T02:40:22.115Z,-2.66
2023-01-25T02:42:51.675Z,-2.84
2023-01-25T02:45:23.871Z,-2.69
2023-01-25T02:47:52.363Z,-2.71
2023-01-25T02:50:20.837Z,-2.76
2023-01-25T02:52:48.953Z,-2.74
2023-01-25T02:55:17.634Z,-2.74
2023-01-25T02:57:45.838Z,-2.77
2023-01-25T03:00:16.095Z,-2.85
2023-01-25T03:02:44.415Z,-2.80
2023-01-25T03:05:12.867Z,-2.80
2023-01-25T03:07:41.042Z,-2.82
2023-01-25T03:10:11.165Z,-2.81
2023-01-25T03:12:39.302Z,-2.83
2023-01-25T03:15:09.819Z,-2.83
2023-01-25T03:17:39.548Z,-2.83
2023-01-25T03:20:08.909Z,-2.88
2023-01-25T03:22:37.141Z,-2.87
2023-01-25T03:25:07.035Z,-2.85
2023-01-25T03:27:35.344Z,-2.89
2023-01-25T03:33:05.737Z,-2.95
2023-01-25T03:35:34.127Z,-2.89
2023-01-25T03:38:02.367Z,-2.85
2023-01-25T03:40:31.789Z,-2.84
2023-01-25T03:42:59.935Z,-2.85
2023-01-25T03:45:28.335Z,-2.83
2023-01-25T03:47:56.761Z,-2.81
2023-01-25T03:50:26.916Z,-2.83
2023-01-25T03:53:11.473Z,-2.87
2023-01-25T03:55:40.010Z,-2.84
2023-01-25T03:58:08.113Z,-2.96
2023-01-25T04:00:36.640Z,-2.89
2023-01-25T04:03:04.999Z,-3.00
2023-01-25T04:05:35.086Z,-3.02
2023-01-25T04:08:03.248Z,-3.10
2023-01-25T04:10:31.659Z,-3.04
2023-01-25T04:12:59.806Z,-3.01
2023-01-25T04:15:28.214Z,-2.98
2023-01-25T04:17:56.436Z,-3.03
2023-01-25T04:20:25.126Z,-3.00
2023-01-25T04:22:54.627Z,-2.97
2023-01-25T04:25:23.034Z,-3.02
2023-01-25T04:27:51.870Z,-2.98
2023-01-25T04:30:20.500Z,-2.98
2023-01-25T04:32:48.830Z,-3.01
2023-01-25T04:35:17.880Z,-3.05
2023-01-25T04:37:45.972Z,-3.13
2023-01-25T04:40:16.208Z,-3.14
2023-01-25T04:42:44.295Z,-3.10
2023-01-25T04:45:13.104Z,-3.09
2023-01-25T04:47:41.542Z,-3.06
2023-01-25T04:50:10.991Z,-3.05
2023-01-25T04:52:39.270Z,-2.94
2023-01-25T04:55:08.633Z,-3.06
2023-01-25T04:57:38.393Z,-2.99
2023-01-25T05:00:08.572Z,-3.05
2023-01-25T05:02:36.869Z,-2.94
2023-01-25T05:05:05.861Z,-3.01
2023-01-25T05:07:34.257Z,-2.98
2023-01-25T05:10:02.701Z,-2.91
2023-01-25T05:12:31.163Z,-2.90
2023-01-25T05:15:01.310Z,-2.88
2023-01-25T05:17:29.622Z,-2.85
2023-01-25T05:19:58.223Z,-2.87
2023-01-25T05:22:26.425Z,-2.89
2023-01-25T05:24:55.152Z,-3.07
2023-01-25T05:27:23.273Z,-2.92
2023-01-25T05:29:52.024Z,-3.14
2023-01-25T05:32:23.390Z,-2.94
2023-01-25T05:34:52.453Z,-2.95
2023-01-25T05:37:22.163Z,-2.90
2023-01-25T05:39:50.945Z,-2.91
2023-01-25T05:42:20.042Z,-2.98
2023-01-25T05:44:48.260Z,-2.97
2023-01-25T05:47:18.183Z,-2.96
2023-01-25T05:49:48.330Z,-2.91
2023-01-25T05:52:17.812Z,-2.93
2023-01-25T05:54:46.225Z,-2.98
2023-01-25T05:57:15.213Z,-2.94
2023-01-25T05:59:44.242Z,-2.96
2023-01-25T06:02:12.582Z,-2.92
2023-01-25T06:04:41.031Z,-2.94
2023-01-25T06:07:10.654Z,-3.01
2023-01-25T06:09:39.161Z,-2.98
2023-01-25T06:12:07.480Z,-2.86
2023-01-25T06:14:36.245Z,-2.88
2023-01-25T06:17:04.401Z,-2.90
2023-01-25T06:19:32.839Z,-2.91
2023-01-25T06:22:01.335Z,-2.97
2023-01-25T06:24:31.211Z,-2.95
2023-01-25T06:26:59.482Z,-2.91
2023-01-25T06:29:28.001Z,-2.90
2023-01-25T06:31:56.897Z,-2.86
2023-01-25T06:34:25.452Z,-2.87
2023-01-25T06:36:53.630Z,-2.92
2023-01-25T06:39:22.353Z,-3.00
2023-01-25T06:41:51.853Z,-2.91
2023-01-25T06:44:20.450Z,-2.88
2023-01-25T06:46:48.708Z,-2.93
2023-01-25T06:49:17.210Z,-2.86
2023-01-25T06:51:45.332Z,-2.85
2023-01-25T06:54:13.828Z,-2.85
2023-01-25T06:56:41.978Z,-2.81
2023-01-25T06:59:12.087Z,-2.87
2023-01-25T07:01:40.430Z,-2.86
2023-01-25T07:04:12.186Z,-2.87
2023-01-25T07:06:41.362Z,-2.95
2023-01-25T07:09:10.561Z,-2.76
2023-01-25T07:11:38.741Z,-2.79
2023-01-25T07:14:07.799Z,-2.74
2023-01-25T07:16:38.815Z,-2.71
2023-01-25T07:19:08.296Z,-2.74
2023-01-25T07:21:36.496Z,-2.75
2023-01-25T07:24:06.557Z,-2.65
2023-01-25T07:26:34.918Z,-2.68
2023-01-25T07:29:03.459Z,-2.63
2023-01-25T07:31:32.035Z,-2.63
2023-01-25T07:34:02.055Z,-2.58
2023-01-25T07:36:30.176Z,-2.55
2023-01-25T07:38:59.768Z,-2.60
2023-01-25T07:41:27.754Z,-2.54
2023-01-25T07:43:56.883Z,-2.65
2023-01-25T07:46:25.544Z,-2.48
2023-01-25T07:48:54.592Z,-2.87
2023-01-25T07:51:26.634Z,-2.35
2023-01-25T07:53:56.876Z,-2.39
2023-01-25T07:56:26.819Z,-2.32
2023-01-25T07:58:55.889Z,-2.37
2023-01-25T08:01:25.821Z,-2.36
2023-01-25T08:03:56.080Z,-2.34
2023-01-25T08:06:31.309Z,-2.43
2023-01-25T08:09:00.586Z,-2.37
2023-01-25T08:11:30.867Z,-2.38
2023-01-25T08:14:02.044Z,-2.37
2023-01-25T08:16:32.253Z,-2.45
2023-01-25T08:19:03.507Z,-2.34
2023-01-25T08:21:35.991Z,-2.31
2023-01-25T08:24:07.067Z,-2.25
2023-01-25T08:26:36.734Z,-2.30
2023-01-25T08:29:06.179Z,-2.22
2023-01-25T08:31:36.377Z,-2.20
2023-01-25T08:34:05.374Z,-2.24
2023-01-25T08:36:35.393Z,-2.16
2023-01-25T08:39:06.570Z,-2.30
2023-01-25T08:41:36.584Z,-2.12
2023-01-25T08:44:06.115Z,-2.05
2023-01-25T08:46:35.248Z,-2.00
2023-01-25T08:49:05.416Z,-1.97
2023-01-25T08:51:35.197Z,-1.94
2023-01-25T08:54:05.034Z,-1.92
2023-01-25T08:56:33.423Z,-1.97
2023-01-25T08:59:01.858Z,-1.95
2023-01-25T09:01:30.079Z,-2.13
2023-01-25T09:03:58.720Z,-1.95
2023-01-25T09:06:27.060Z,-1.88
2023-01-25T09:08:57.147Z,-1.80
2023-01-25T09:11:25.684Z,-1.78
2023-01-25T09:13:54.486Z,-1.82
2023-01-25T09:16:29.409Z,-1.68
2023-01-25T09:18:59.431Z,-1.82
2023-01-25T09:21:27.912Z,-1.63
2023-01-25T09:24:06.032Z,-1.60
2023-01-25T09:26:36.304Z,-1.55
2023-01-25T09:29:08.043Z,-1.38
2023-01-25T09:31:40.444Z,-1.18
2023-01-25T09:34:10.055Z,-1.10
2023-01-25T09:36:38.433Z,-1.12
2023-01-25T09:39:09.386Z,-1.50
2023-01-25T09:42:00.737Z,-1.33
2023-01-25T09:44:47.974Z,-1.55
2023-01-25T09:47:22.261Z,-1.44
2023-01-25T09:50:09.781Z,-1.60
2023-01-25T09:52:59.511Z,-1.41
2023-01-25T09:55:31.249Z,-1.30
2023-01-25T09:58:03.003Z,-1.24
2023-01-25T10:00:36.956Z,-1.24
2023-01-25T10:03:13.101Z,-1.36
2023-01-25T10:05:45.999Z,-1.11
2023-01-25T10:08:26.059Z,-0.88
2023-01-25T10:11:02.137Z,-0.79
2023-01-25T10:13:32.117Z,-0.58
2023-01-25T10:16:09.888Z,-0.61
2023-01-25T10:18:46.706Z,-0.53
2023-01-25T10:21:23.115Z,-0.51
2023-01-25T10:24:12.932Z,-0.67
2023-01-25T10:26:48.411Z,-0.64
2023-01-25T10:29:21.257Z,-0.60
2023-01-25T10:31:53.417Z,-0.61
2023-01-25T10:34:23.776Z,-0.55
2023-01-25T10:36:55.981Z,-0.54
2023-01-25T10:39:24.725Z,-0.65
2023-01-25T10:42:00.597Z,-0.64
2023-01-25T10:44:29.184Z,-0.50
2023-01-25T10:47:02.513Z,-0.52
2023-01-25T10:49:42.158Z,-0.40
2023-01-25T10:52:16.271Z,-0.33
2023-01-25T10:54:44.757Z,-0.49
2023-01-25T10:57:19.382Z,-0.69
2023-01-25T10:59:49.583Z,-0.88
2023-01-25T11:02:49.712Z,-0.84
2023-01-25T11:05:29.664Z,-0.87
2023-01-25T11:07:58.699Z,-0.92
2023-01-25T11:10:32.608Z,-0.95
2023-01-25T11:13:21.037Z,-1.04
2023-01-25T11:15:52.498Z,-0.94
2023-01-25T11:18:23.612Z,-0.98
2023-01-25T11:21:06.759Z,-0.96
2023-01-25T11:23:35.503Z,-0.86
2023-01-25T11:26:15.659Z,-0.94
2023-01-25T11:28:49.087Z,-0.91
2023-01-25T11:31:21.564Z,-0.69
2023-01-25T11:33:50.300Z,-0.67
2023-01-25T11:36:26.632Z,-0.58
2023-01-25T11:39:08.769Z,-0.53
2023-01-25T11:41:51.212Z,-0.60
2023-01-25T11:44:47.746Z,-0.50
2023-01-25T11:47:24.571Z,-0.46
2023-01-25T11:50:05.391Z,-0.41
2023-01-25T11:52:44.875Z,-0.33
2023-01-25T11:55:23.664Z,-0.31
2023-01-25T11:58:08.264Z,-0.48
2023-01-25T12:01:00.055Z,-0.24
2023-01-25T12:04:09.260Z,-0.28
2023-01-25T12:06:49.048Z,-0.27
2023-01-25T12:09:30.180Z,-0.37
2023-01-25T12:12:10.998Z,-0.26
2023-01-25T12:14:55.720Z,-0.56
2023-01-25T12:17:38.179Z,-0.40
2023-01-25T12:20:19.412Z,-0.42
2023-01-25T12:23:04.440Z,-0.40
2023-01-25T12:25:46.273Z,-0.82
2023-01-25T12:28:21.404Z,-0.51
2023-01-25T12:30:55.683Z,-0.34
2023-01-25T12:33:34.015Z,-0.37
2023-01-25T12:36:08.180Z,-0.37
2023-01-25T12:38:43.394Z,-0.40
2023-01-25T12:41:22.886Z,-0.35
2023-01-25T12:43:57.562Z,-0.42
2023-01-25T12:46:31.214Z,-0.34
2023-01-25T12:49:07.495Z,-0.31
2023-01-25T12:51:41.157Z,-0.47
2023-01-25T12:54:18.489Z,-0.43
2023-01-25T12:56:54.437Z,-0.29
2023-01-25T12:59:34.291Z,-0.40
2023-01-25T13:02:14.287Z,-0.31
2023-01-25T13:04:59.089Z,-0.34
2023-01-25T13:07:37.469Z,-0.38
2023-01-25T13:10:17.483Z,-0.51
2023-01-25T13:12:52.902Z,-0.49
2023-01-25T13:15:41.801Z,-0.47
2023-01-25T13:18:38.809Z,-0.51
2023-01-25T13:21:33.435Z,-0.50
2023-01-25T13:24:20.766Z,-0.51
2023-01-25T13:27:04.812Z,-0.51
2023-01-25T13:29:57.599Z,-0.58
2023-01-25T13:32:55.633Z,-0.58
2023-01-25T13:35:35.689Z,-0.59
2023-01-25T13:38:27.663Z,-0.62
2023-01-25T13:41:17.937Z,-0.69
2023-01-25T13:43:56.077Z,-0.76
2023-01-25T13:46:26.960Z,-0.83
2023-01-25T13:49:02.998Z,-1.09
2023-01-25T13:51:37.391Z,-1.16
2023-01-25T13:54:06.166Z,-0.89
2023-01-25T13:56:37.513Z,-0.88
2023-01-25T13:59:06.134Z,-1.06
2023-01-25T14:01:37.197Z,-0.93
2023-01-25T14:04:06.674Z,-0.95
2023-01-25T14:06:38.241Z,-1.21
2023-01-25T14:09:16.643Z,-1.03
2023-01-25T14:11:49.449Z,-1.15
2023-01-25T14:14:21.807Z,-1.31
2023-01-25T14:19:39.927Z,-1.31
2023-01-25T14:22:29.752Z,-1.30
2023-01-25T14:25:13.602Z,-1.47
2023-01-25T14:27:48.442Z,-1.55
2023-01-25T14:30:25.431Z,-1.61
2023-01-25T14:32:55.807Z,-1.66
2023-01-25T14:35:54.351Z,-1.71
2023-01-25T14:38:28.130Z,-1.77
2023-01-25T14:41:00.734Z,-2.02
2023-01-25T14:43:31.858Z,-1.99
2023-01-25T14:46:00.625Z,-1.97
2023-01-25T14:48:40.642Z,-2.02
2023-01-25T14:51:21.716Z,-2.10
2023-01-25T14:53:59.338Z,-2.40
2023-01-25T14:56:43.364Z,-2.31
2023-01-25T14:59:36.217Z,-2.42
2023-01-25T15:02:17.008Z,-2.63
2023-01-25T15:04:54.599Z,-2.79
2023-01-25T15:07:42.385Z,-2.85
2023-01-25T15:10:18.359Z,-2.90
2023-01-25T15:13:04.220Z,-2.97
2023-01-25T15:15:51.968Z,-3.11
2023-01-25T15:18:43.011Z,-3.08
2023-01-25T15:21:12.902Z,-3.17
2023-01-25T15:23:42.694Z,-3.20
2023-01-25T15:26:19.296Z,-3.33
2023-01-25T15:28:48.454Z,-3.26
2023-01-25T15:31:20.464Z,-3.26
2023-01-25T15:33:49.130Z,-3.31
2023-01-25T15:36:17.869Z,-3.34
2023-01-25T15:38:46.627Z,-3.52
2023-01-25T15:41:15.553Z,-3.44
2023-01-25T15:43:44.025Z,-3.57
2023-01-25T15:46:17.885Z,-3.53
2023-01-25T15:48:49.454Z,-3.58
2023-01-25T15:51:18.359Z,-3.64
2023-01-25T15:53:48.012Z,-3.82
2023-01-25T15:56:17.743Z,-3.71
2023-01-25T15:58:50.758Z,-3.88
2023-01-25T16:01:19.197Z,-3.72
2023-01-25T16:03:49.352Z,-3.76
2023-01-25T16:06:32.718Z,-3.90
2023-01-25T16:09:01.803Z,-3.85
2023-01-25T16:11:30.024Z,-3.85
2023-01-25T16:13:59.009Z,-3.91
2023-01-25T16:16:27.357Z,-3.98
2023-01-25T16:18:57.572Z,-4.04
2023-01-25T16:21:26.399Z,-4.05
2023-01-25T16:23:55.025Z,-4.27
2023-01-25T16:26:25.682Z,-4.56
2023-01-25T16:28:54.410Z,-4.17
2023-01-25T16:31:32.482Z,-4.23
2023-01-25T16:34:03.699Z,-4.23
2023-01-25T16:36:34.297Z,-4.18
2023-01-25T16:39:10.168Z,-4.16
2023-01-25T16:41:38.763Z,-4.13
2023-01-25T16:44:07.233Z,-4.09
2023-01-25T16:46:35.644Z,-4.12
2023-01-25T16:49:07.143Z,-4.30
2023-01-25T16:51:35.370Z,-5.19
2023-01-25T16:54:04.183Z,-4.12
2023-01-25T16:56:34.566Z,-4.16
2023-01-25T16:59:05.098Z,-4.50
2023-01-25T17:01:33.935Z,-4.21
2023-01-25T17:04:02.568Z,-4.16
2023-01-25T17:06:34.410Z,-4.37
2023-01-25T17:09:20.492Z,-3.95
2023-01-25T17:11:50.007Z,-3.86
2023-01-25T17:14:20.247Z,-3.77
2023-01-25T17:16:51.623Z,-3.77
2023-01-25T17:19:20.855Z,-3.79
2023-01-25T17:21:50.910Z,-3.56
2023-01-25T17:24:22.244Z,-3.49
2023-01-25T17:26:52.394Z,-3.41
2023-01-25T17:29:21.829Z,-3.31
2023-01-25T17:31:50.287Z,-3.21
2023-01-25T17:34:21.764Z,-3.10
2023-01-25T17:36:52.636Z,-3.02
2023-01-25T17:39:22.540Z,-3.01
2023-01-25T17:41:51.095Z,-2.94
2023-01-25T17:44:21.540Z,-2.97
2023-01-25T17:46:50.214Z,-3.10
2023-01-25T17:49:19.572Z,-2.91
2023-01-25T17:51:48.105Z,-3.04
2023-01-25T17:54:18.043Z,-2.89
2023-01-25T17:56:46.153Z,-2.81
2023-01-25T17:59:14.960Z,-2.84
2023-01-25T18:01:43.773Z,-2.70
2023-01-25T18:04:13.377Z,-2.68
2023-01-25T18:06:41.670Z,-2.67
2023-01-25T18:09:10.643Z,-2.78
2023-01-25T18:11:41.222Z,-2.63
2023-01-25T18:14:13.105Z,-2.72
2023-01-25T18:16:42.225Z,-2.62
2023-01-25T18:19:13.463Z,-2.62
2023-01-25T18:21:42.447Z,-2.62
2023-01-25T18:24:26.786Z,-2.66
2023-01-25T18:27:02.378Z,-2.84
2023-01-25T18:29:41.352Z,-2.61
2023-01-25T18:32:09.478Z,-2.72
2023-01-25T18:34:37.885Z,-2.57
2023-01-25T18:37:18.004Z,-2.61
2023-01-25T18:39:47.257Z,-2.59
2023-01-25T18:42:17.391Z,-2.85
2023-01-25T18:44:48.413Z,-2.59
2023-01-25T18:47:19.068Z,-2.63
2023-01-25T18:49:49.455Z,-2.63
2023-01-25T18:52:18.427Z,-2.60
2023-01-25T18:54:47.179Z,-2.58
2023-01-25T18:57:17.797Z,-3.07
2023-01-25T18:59:47.365Z,-2.59
2023-01-25T19:02:16.962Z,-2.59
2023-01-25T19:04:45.802Z,-2.66
2023-01-25T19:07:14.197Z,-2.53
2023-01-25T19:09:43.703Z,-2.52
2023-01-25T19:12:12.004Z,-2.50
2023-01-25T19:14:42.061Z,-2.45
2023-01-25T19:17:10.750Z,-2.44
2023-01-25T19:20:00.624Z,-3.23
2023-01-25T19:22:28.858Z,-2.51
2023-01-25T19:24:57.242Z,-2.48
2023-01-25T19:27:25.510Z,-2.51
2023-01-25T19:29:55.745Z,-2.59
2023-01-25T19:32:24.086Z,-2.65
2023-01-25T19:34:52.711Z,-2.46
2023-01-25T19:37:20.865Z,-2.46
2023-01-25T19:39:49.499Z,-2.47
2023-01-25T19:42:18.707Z,-2.45
2023-01-25T19:44:48.375Z,-2.71
2023-01-25T19:47:17.906Z,-2.49
2023-01-25T19:49:46.409Z,-2.48
2023-01-25T19:52:14.686Z,-2.50
2023-01-25T19:54:43.470Z,-2.50
2023-01-25T19:57:11.818Z,-2.52
2023-01-25T19:59:40.209Z,-2.74
2023-01-25T20:02:12.543Z,-2.48
2023-01-25T20:04:42.936Z,-2.46
2023-01-25T20:07:11.076Z,-2.45
2023-01-25T20:09:39.865Z,-2.47
2023-01-25T20:12:08.411Z,-2.52
2023-01-25T20:14:38.088Z,-2.59
2023-01-25T20:17:07.150Z,-2.50
2023-01-25T20:19:37.246Z,-2.46
2023-01-25T20:22:07.149Z,-2.46
2023-01-25T20:24:35.742Z,-2.49
2023-01-25T20:27:04.753Z,-2.50
2023-01-25T20:29:33.227Z,-2.50
2023-01-25T20:32:03.313Z,-2.50
2023-01-25T20:34:31.815Z,-2.45
2023-01-25T20:37:00.661Z,-2.45
2023-01-25T20:39:30.914Z,-2.44
2023-01-25T20:42:00.123Z,-2.38
2023-01-25T20:44:29.925Z,-2.39
2023-01-25T20:46:58.226Z,-2.38
2023-01-25T20:49:26.890Z,-2.35
2023-01-25T20:51:55.044Z,-2.34
2023-01-25T20:54:23.650Z,-2.40
2023-01-25T20:56:53.388Z,-2.42
2023-01-25T20:59:22.132Z,-2.47
2023-01-25T21:01:50.736Z,-2.43
2023-01-25T21:04:19.309Z,-2.40
2023-01-25T21:06:47.603Z,-2.62
2023-01-25T21:09:16.501Z,-2.42
2023-01-25T21:11:44.779Z,-2.41
2023-01-25T21:14:15.017Z,-2.45
2023-01-25T21:16:43.136Z,-3.26
2023-01-25T21:19:11.899Z,-2.45
2023-01-25T21:21:40.649Z,-2.46
2023-01-25T21:24:11.906Z,-2.46
2023-01-25T21:26:40.154Z,-2.58
2023-01-25T21:29:09.036Z,-2.51
2023-01-25T21:31:42.488Z,-2.60
2023-01-25T21:34:11.590Z,-2.64
2023-01-25T21:36:39.708Z,-2.67
2023-01-25T21:39:08.910Z,-3.02
2023-01-25T21:41:37.101Z,-2.55
2023-01-25T21:44:23.697Z,-2.43
2023-01-25T21:47:27.510Z,-2.44
2023-01-25T21:49:59.467Z,-2.42
2023-01-25T21:52:27.664Z,-2.85
2023-01-25T21:54:56.128Z,-2.41
2023-01-25T21:57:24.348Z,-2.41
2023-01-25T21:59:54.396Z,-2.42
2023-01-25T22:02:24.449Z,-2.44
2023-01-25T22:04:52.991Z,-2.46
2023-01-25T22:07:21.157Z,-2.44
2023-01-25T22:09:50.458Z,-2.42
2023-01-25T22:12:18.712Z,-2.43
2023-01-25T22:14:47.153Z,-2.41
2023-01-25T22:17:15.423Z,-2.50
2023-01-25T22:19:45.387Z,-2.46
2023-01-25T22:22:13.828Z,-2.56
2023-01-25T22:24:42.225Z,-2.65
2023-01-25T22:27:31.708Z,-2.59
2023-01-25T22:30:00.235Z,-2.56
2023-01-25T22:32:28.443Z,-2.63
2023-01-25T22:34:58.200Z,-2.52
2023-01-25T22:37:26.372Z,-2.68
2023-01-25T22:39:58.390Z,-2.50
2023-01-25T22:42:27.004Z,-2.47
2023-01-25T22:44:55.505Z,-2.36
2023-01-25T22:47:23.712Z,-2.29
2023-01-25T22:49:52.111Z,-2.30
2023-01-25T22:52:22.219Z,-2.32
2023-01-25T22:54:51.843Z,-2.33
2023-01-25T22:57:20.080Z,-2.46
2023-01-25T22:59:48.608Z,-2.38
2023-01-25T23:02:16.776Z,-2.32
2023-01-25T23:04:45.325Z,-2.29
2023-01-25T23:07:18.665Z,-2.31
2023-01-25T23:09:51.592Z,-2.32
2023-01-25T23:12:20.144Z,-2.45
2023-01-25T23:14:51.569Z,-2.37
2023-01-25T23:17:38.161Z,-2.43
2023-01-25T23:20:08.480Z,-2.51
2023-01-25T23:22:36.818Z,-2.42
2023-01-25T23:25:08.602Z,-2.46
2023-01-25T23:27:36.888Z,-2.47
2023-01-25T23:30:07.307Z,-2.43
2023-01-25T23:32:35.588Z,-2.43
2023-01-25T23:35:04.405Z,-2.43
2023-01-25T23:37:32.763Z,-2.40
2023-01-25T23:40:01.263Z,-2.77
2023-01-25T23:42:31.073Z,-2.39
2023-01-25T23:44:59.557Z,-2.45
2023-01-25T23:47:30.110Z,-2.46
2023-01-25T23:49:59.666Z,-2.49
2023-01-25T23:52:28.916Z,-2.55
2023-01-25T23:54:57.350Z,-2.43
2023-01-25T23:57:25.711Z,-2.41
2023-01-25T23:59:55.847Z,-2.34
